createdAt,value
2022-12-24T00:01:36.847Z,10.50
2022-12-24T00:04:05.353Z,10.50
2022-12-24T00:06:33.223Z,10.50
2022-12-24T00:09:01.551Z,10.50
2022-12-24T00:11:29.419Z,10.40
2022-12-24T00:13:59.010Z,10.50
2022-12-24T00:16:26.953Z,10.60
2022-12-24T00:18:55.181Z,10.60
2022-12-24T00:21:23.186Z,10.60
2022-12-24T00:23:51.126Z,10.60
2022-12-24T00:26:22.311Z,10.50
2022-12-24T00:28:50.492Z,10.50
2022-12-24T00:31:20.416Z,10.50
2022-12-24T00:33:49.172Z,10.40
2022-12-24T00:36:18.238Z,10.40
2022-12-24T00:38:46.995Z,10.40
2022-12-24T00:41:25.718Z,10.50
2022-12-24T00:43:55.120Z,10.40
2022-12-24T00:46:26.314Z,10.40
2022-12-24T00:48:55.217Z,10.40
2022-12-24T00:51:24.628Z,10.50
2022-12-24T00:53:53.697Z,10.40
2022-12-24T00:56:22.720Z,10.40
2022-12-24T00:58:51.138Z,10.40
2022-12-24T01:01:20.148Z,10.40
2022-12-24T01:03:51.224Z,10.40
2022-12-24T01:06:21.410Z,10.40
2022-12-24T01:08:52.261Z,10.40
2022-12-24T01:11:20.589Z,10.40
2022-12-24T01:13:48.502Z,10.30
2022-12-24T01:16:20.115Z,10.40
2022-12-24T01:18:49.510Z,10.30
2022-12-24T01:21:17.875Z,10.30
2022-12-24T01:23:46.409Z,10.20
2022-12-24T01:26:14.688Z,10.10
2022-12-24T01:28:43.058Z,10.10
2022-12-24T01:31:15.677Z,10.10
2022-12-24T01:33:44.546Z,10.10
2022-12-24T01:36:15.154Z,10.10
2022-12-24T01:38:43.501Z,10.00
2022-12-24T01:41:36.158Z,10.00
2022-12-24T01:44:33.118Z,10.10
2022-12-24T01:47:12.816Z,10.30
2022-12-24T01:49:47.556Z,10.40
2022-12-24T01:52:21.808Z,10.40
2022-12-24T01:54:54.740Z,10.40
2022-12-24T01:57:28.960Z,10.40
2022-12-24T02:00:01.794Z,10.30
2022-12-24T02:02:34.141Z,10.30
2022-12-24T02:05:08.974Z,10.40
2022-12-24T02:07:38.707Z,10.40
2022-12-24T02:10:10.605Z,10.30
2022-12-24T02:12:40.468Z,10.20
2022-12-24T02:15:14.395Z,10.10
2022-12-24T02:17:58.587Z,10.00
2022-12-24T02:21:05.335Z,10.10
2022-12-24T02:24:10.031Z,10.20
2022-12-24T02:27:01.493Z,10.10
2022-12-24T02:30:04.563Z,10.10
2022-12-24T02:32:54.861Z,10.20
2022-12-24T02:35:35.615Z,10.30
2022-12-24T02:38:27.058Z,10.40
2022-12-24T02:41:02.329Z,10.40
2022-12-24T02:43:36.585Z,10.40
2022-12-24T02:46:12.756Z,10.30
2022-12-24T02:48:45.150Z,10.30
2022-12-24T02:51:13.170Z,10.30
2022-12-24T02:53:42.264Z,10.40
2022-12-24T02:56:35.210Z,10.40
2022-12-24T02:59:31.172Z,10.30
2022-12-24T03:02:14.382Z,10.30
2022-12-24T03:04:49.695Z,10.30
2022-12-24T03:07:27.059Z,10.30
2022-12-24T03:10:19.368Z,10.30
2022-12-24T03:12:52.972Z,10.30
2022-12-24T03:15:25.888Z,10.20
2022-12-24T03:18:01.292Z,10.20
2022-12-24T03:20:38.067Z,10.10
2022-12-24T03:23:06.556Z,10.20
2022-12-24T03:25:36.608Z,10.20
2022-12-24T03:28:08.086Z,10.20
2022-12-24T03:30:36.410Z,10.20
2022-12-24T03:33:05.636Z,10.20
2022-12-24T03:35:33.524Z,10.20
2022-12-24T03:38:01.418Z,10.20
2022-12-24T03:40:29.293Z,10.10
2022-12-24T03:42:57.386Z,10.10
2022-12-24T03:45:25.413Z,10.10
2022-12-24T03:47:53.377Z,10.10
2022-12-24T03:50:22.648Z,10.10
2022-12-24T03:52:50.509Z,10.00
2022-12-24T03:55:18.480Z,10.10
2022-12-24T03:57:46.362Z,10.10
2022-12-24T04:00:15.856Z,10.10
2022-12-24T04:02:44.707Z,10.10
2022-12-24T04:05:17.320Z,10.10
2022-12-24T04:07:47.904Z,10.10
2022-12-24T04:10:16.794Z,10.10
2022-12-24T04:12:44.846Z,10.10
2022-12-24T04:15:12.791Z,10.20
2022-12-24T04:17:40.670Z,10.20
2022-12-24T04:20:10.191Z,10.20
2022-12-24T04:22:38.069Z,10.20
2022-12-24T04:25:09.699Z,10.30
2022-12-24T04:27:40.349Z,10.40
2022-12-24T04:30:10.485Z,10.40
2022-12-24T04:32:38.363Z,10.30
2022-12-24T04:35:07.204Z,10.30
2022-12-24T04:37:35.661Z,10.30
2022-12-24T04:40:03.793Z,10.20
2022-12-24T04:42:33.011Z,10.20
2022-12-24T04:45:00.933Z,10.20
2022-12-24T04:47:31.693Z,10.10
2022-12-24T04:50:01.441Z,10.10
2022-12-24T04:52:29.379Z,10.10
2022-12-24T04:54:57.325Z,10.10
2022-12-24T04:57:25.212Z,10.00
2022-12-24T04:59:54.420Z,10.00
2022-12-24T05:02:22.413Z,10.10
2022-12-24T05:04:50.735Z,10.10
2022-12-24T05:07:18.675Z,10.10
2022-12-24T05:09:46.529Z,10.10
2022-12-24T05:12:14.444Z,10.10
2022-12-24T05:14:42.338Z,10.00
2022-12-24T05:17:11.913Z,9.90
2022-12-24T05:19:39.871Z,10.00
2022-12-24T05:22:25.249Z,10.00
2022-12-24T05:25:22.199Z,9.90
2022-12-24T05:27:51.488Z,9.90
2022-12-24T05:30:19.742Z,9.80
2022-12-24T05:32:48.987Z,9.80
2022-12-24T05:35:17.016Z,9.80
2022-12-24T05:37:44.967Z,9.80
2022-12-24T05:40:13.378Z,9.90
2022-12-24T05:42:41.450Z,9.90
2022-12-24T05:45:11.019Z,9.80
2022-12-24T05:47:43.269Z,9.80
2022-12-24T05:50:13.819Z,9.80
2022-12-24T05:52:41.695Z,9.80
2022-12-24T05:55:10.787Z,9.80
2022-12-24T05:57:41.148Z,9.80
2022-12-24T06:00:10.725Z,9.80
2022-12-24T06:02:41.215Z,9.70
2022-12-24T06:05:10.102Z,9.70
2022-12-24T06:07:39.540Z,9.60
2022-12-24T06:10:10.081Z,9.60
2022-12-24T06:12:37.981Z,9.50
2022-12-24T06:15:07.645Z,9.50
2022-12-24T06:17:35.616Z,9.40
2022-12-24T06:20:03.687Z,9.40
2022-12-24T06:22:32.126Z,9.30
2022-12-24T06:25:01.427Z,9.00
2022-12-24T06:27:29.319Z,9.10
2022-12-24T06:29:57.259Z,9.10
2022-12-24T06:32:25.155Z,9.10
2022-12-24T06:34:53.045Z,9.10
2022-12-24T06:37:21.704Z,9.10
2022-12-24T06:39:49.557Z,9.10
2022-12-24T06:42:18.749Z,9.10
2022-12-24T06:44:46.597Z,9.10
2022-12-24T06:47:14.455Z,9.10
2022-12-24T06:49:42.351Z,9.10
2022-12-24T06:52:10.273Z,9.10
2022-12-24T06:54:38.255Z,9.10
2022-12-24T06:57:06.868Z,9.20
2022-12-24T06:59:36.056Z,9.20
2022-12-24T07:02:04.171Z,9.30
2022-12-24T07:04:32.335Z,9.30
2022-12-24T07:07:00.209Z,9.30
2022-12-24T07:09:30.951Z,9.30
2022-12-24T07:11:59.035Z,9.20
2022-12-24T07:14:26.961Z,9.20
2022-12-24T07:16:59.313Z,9.10
2022-12-24T07:19:27.524Z,9.10
2022-12-24T07:21:55.378Z,9.10
2022-12-24T07:24:23.254Z,9.10
2022-12-24T07:26:51.549Z,9.10
2022-12-24T07:29:19.766Z,9.10
2022-12-24T07:31:47.688Z,9.20
2022-12-24T07:34:17.284Z,9.10
2022-12-24T07:36:45.256Z,9.10
2022-12-24T07:39:13.131Z,9.10
2022-12-24T07:41:41.983Z,9.10
2022-12-24T07:44:13.251Z,9.10
2022-12-24T07:46:41.652Z,9.10
2022-12-24T07:49:10.373Z,9.10
2022-12-24T07:51:39.925Z,9.10
2022-12-24T07:54:08.124Z,9.20
2022-12-24T07:56:36.301Z,9.10
2022-12-24T07:59:04.367Z,9.10
2022-12-24T08:01:32.659Z,9.20
2022-12-24T08:04:00.636Z,9.30
2022-12-24T08:06:28.859Z,9.30
2022-12-24T08:08:58.138Z,9.40
2022-12-24T08:11:26.298Z,9.40
2022-12-24T08:13:54.653Z,9.60
2022-12-24T08:16:22.792Z,9.80
2022-12-24T08:18:50.731Z,9.90
2022-12-24T08:21:18.902Z,10.00
2022-12-24T08:23:48.133Z,10.10
2022-12-24T08:26:18.675Z,10.30
2022-12-24T08:28:46.553Z,10.40
2022-12-24T08:31:15.851Z,10.60
2022-12-24T08:33:43.779Z,10.70
2022-12-24T08:36:11.681Z,10.80
2022-12-24T08:38:39.984Z,10.90
2022-12-24T08:41:07.851Z,10.90
2022-12-24T08:43:37.059Z,11.10
2022-12-24T08:46:07.877Z,11.20
2022-12-24T08:48:37.319Z,11.30
2022-12-24T08:51:09.497Z,11.30
2022-12-24T08:53:37.497Z,11.20
2022-12-24T08:56:08.543Z,11.10
2022-12-24T08:58:37.969Z,11.30
2022-12-24T09:01:13.199Z,11.40
2022-12-24T09:03:41.677Z,11.50
2022-12-24T09:06:11.139Z,11.50
2022-12-24T09:08:39.156Z,11.70
2022-12-24T09:11:09.519Z,11.70
2022-12-24T09:13:39.783Z,11.80
2022-12-24T09:16:09.437Z,11.90
2022-12-24T09:18:38.779Z,12.00
2022-12-24T09:21:11.275Z,12.00
2022-12-24T09:23:40.632Z,12.00
2022-12-24T09:26:15.596Z,12.00
2022-12-24T09:28:45.220Z,12.10
2022-12-24T09:31:14.759Z,12.30
2022-12-24T09:33:45.867Z,12.30
2022-12-24T09:36:14.053Z,12.40
2022-12-24T09:38:42.017Z,12.50
2022-12-24T09:41:15.951Z,12.50
2022-12-24T09:43:54.027Z,12.60
2022-12-24T09:46:29.160Z,12.70
2022-12-24T09:49:05.281Z,13.00
2022-12-24T09:51:40.360Z,13.20
2022-12-24T09:54:18.913Z,13.20
2022-12-24T09:56:49.643Z,13.30
2022-12-24T09:59:24.125Z,13.20
2022-12-24T10:01:55.783Z,13.10
2022-12-24T10:04:30.356Z,13.00
2022-12-24T10:07:12.108Z,12.80
2022-12-24T10:09:51.848Z,12.40
2022-12-24T10:12:32.144Z,12.20
2022-12-24T10:15:13.806Z,12.30
2022-12-24T10:17:56.610Z,12.40
2022-12-24T10:20:40.070Z,12.50
2022-12-24T10:23:20.409Z,12.40
2022-12-24T10:26:04.491Z,12.40
2022-12-24T10:28:43.073Z,12.30
2022-12-24T10:31:13.578Z,12.20
2022-12-24T10:33:45.129Z,12.00
2022-12-24T10:36:18.487Z,12.00
2022-12-24T10:38:47.517Z,11.90
2022-12-24T10:41:17.189Z,11.80
2022-12-24T10:43:48.616Z,11.80
2022-12-24T10:46:23.782Z,11.70
2022-12-24T10:48:58.922Z,11.70
2022-12-24T10:51:41.589Z,11.60
2022-12-24T10:54:17.301Z,11.60
2022-12-24T10:56:52.505Z,11.70
2022-12-24T10:59:28.049Z,11.60
2022-12-24T11:02:00.377Z,11.50
2022-12-24T11:04:32.494Z,11.60
2022-12-24T11:07:03.456Z,11.60
2022-12-24T11:09:34.541Z,11.70
2022-12-24T11:12:09.469Z,11.90
2022-12-24T11:14:40.266Z,11.80
2022-12-24T11:17:23.182Z,11.70
2022-12-24T11:19:52.234Z,11.50
2022-12-24T11:22:26.122Z,11.40
2022-12-24T11:25:19.354Z,11.20
2022-12-24T11:27:50.623Z,11.20
2022-12-24T11:30:33.676Z,11.10
2022-12-24T11:33:20.309Z,11.10
2022-12-24T11:35:55.491Z,11.10
2022-12-24T11:38:27.131Z,11.10
2022-12-24T11:41:06.159Z,11.10
2022-12-24T11:43:45.865Z,11.00
2022-12-24T11:46:22.478Z,10.90
2022-12-24T11:49:14.554Z,10.90
2022-12-24T11:52:06.849Z,10.70
2022-12-24T11:54:46.146Z,10.70
2022-12-24T11:57:17.525Z,10.60
2022-12-24T11:59:49.216Z,10.50
2022-12-24T12:02:24.617Z,10.30
2022-12-24T12:05:00.150Z,10.20
2022-12-24T12:07:32.431Z,10.20
2022-12-24T12:10:06.627Z,10.10
2022-12-24T12:12:41.932Z,10.10
2022-12-24T12:15:17.407Z,10.10
2022-12-24T12:17:51.572Z,10.10
2022-12-24T12:20:26.316Z,10.20
2022-12-24T12:23:01.183Z,10.10
2022-12-24T12:25:37.162Z,10.00
2022-12-24T12:28:12.986Z,10.00
2022-12-24T12:30:45.572Z,10.00
2022-12-24T12:33:26.499Z,9.90
2022-12-24T12:35:59.048Z,9.90
2022-12-24T12:38:30.039Z,9.90
2022-12-24T12:41:14.736Z,10.00
2022-12-24T12:44:26.103Z,10.10
2022-12-24T12:47:18.162Z,10.10
2022-12-24T12:50:00.949Z,10.20
2022-12-24T12:52:54.106Z,10.30
2022-12-24T12:55:40.029Z,10.40
2022-12-24T12:58:18.186Z,10.50
2022-12-24T13:00:53.765Z,10.60
2022-12-24T13:04:01.557Z,10.60
2022-12-24T13:07:05.103Z,10.70
2022-12-24T13:10:01.172Z,10.70
2022-12-24T13:13:03.443Z,10.80
2022-12-24T13:15:50.828Z,10.80
2022-12-24T13:18:49.772Z,10.80
2022-12-24T13:21:22.404Z,10.90
2022-12-24T13:23:51.590Z,11.00
2022-12-24T13:26:21.250Z,11.00
2022-12-24T13:28:49.245Z,11.00
2022-12-24T13:31:30.714Z,10.90
2022-12-24T13:34:03.192Z,10.80
2022-12-24T13:37:05.784Z,10.80
2022-12-24T13:40:16.305Z,10.70
2022-12-24T13:43:09.932Z,10.60
2022-12-24T13:45:49.604Z,10.40
2022-12-24T13:48:32.365Z,10.30
2022-12-24T13:51:20.200Z,10.20
2022-12-24T13:53:50.247Z,10.20
2022-12-24T13:56:27.619Z,10.10
2022-12-24T13:59:21.976Z,10.10
2022-12-24T14:01:50.473Z,10.10
2022-12-24T14:04:26.805Z,10.20
2022-12-24T14:06:59.189Z,10.10
2022-12-24T14:09:30.230Z,10.00
2022-12-24T14:12:48.310Z,9.90
2022-12-24T14:16:05.066Z,9.80
2022-12-24T14:18:38.942Z,9.70
2022-12-24T14:21:20.159Z,9.40
2022-12-24T14:23:56.795Z,9.30
2022-12-24T14:26:31.837Z,9.20
2022-12-24T14:29:06.563Z,9.30
2022-12-24T14:31:36.096Z,9.30
2022-12-24T14:34:08.578Z,9.30
2022-12-24T14:36:37.807Z,9.30
2022-12-24T14:39:09.513Z,9.40
2022-12-24T14:41:55.872Z,9.40
2022-12-24T14:44:35.930Z,9.40
2022-12-24T14:47:21.993Z,9.40
2022-12-24T14:50:17.914Z,9.50
2022-12-24T14:53:08.173Z,9.50
2022-12-24T14:55:43.357Z,9.50
2022-12-24T14:58:26.371Z,9.50
2022-12-24T15:00:58.129Z,9.40
2022-12-24T15:03:30.317Z,9.50
2022-12-24T15:06:03.292Z,9.40
2022-12-24T15:08:37.593Z,9.40
2022-12-24T15:11:10.113Z,9.50
2022-12-24T15:13:41.465Z,9.50
2022-12-24T15:16:13.640Z,9.50
2022-12-24T15:18:51.141Z,9.50
2022-12-24T15:21:27.346Z,9.60
2022-12-24T15:23:55.230Z,9.60
2022-12-24T15:26:29.363Z,9.60
2022-12-24T15:29:03.745Z,9.60
2022-12-24T15:31:32.812Z,9.60
2022-12-24T15:34:02.127Z,9.70
2022-12-24T15:36:35.184Z,9.70
2022-12-24T15:39:06.974Z,9.60
2022-12-24T15:42:02.333Z,9.60
2022-12-24T15:44:41.408Z,9.60
2022-12-24T15:47:17.721Z,9.50
2022-12-24T15:49:52.964Z,9.30
2022-12-24T15:52:25.157Z,9.30
2022-12-24T15:54:58.066Z,9.30
2022-12-24T15:57:31.328Z,9.30
2022-12-24T16:00:01.462Z,9.20
2022-12-24T16:02:38.304Z,9.10
2022-12-24T16:05:36.705Z,9.00
2022-12-24T16:08:27.274Z,8.90
2022-12-24T16:11:12.506Z,9.00
2022-12-24T16:13:43.544Z,8.90
2022-12-24T16:16:15.817Z,8.90
2022-12-24T16:18:54.675Z,8.90
2022-12-24T16:21:29.803Z,8.80
2022-12-24T16:24:08.529Z,8.80
2022-12-24T16:26:38.105Z,8.80
2022-12-24T16:29:05.986Z,8.80
2022-12-24T16:31:38.357Z,8.80
2022-12-24T16:34:06.956Z,8.80
2022-12-24T16:36:36.147Z,8.70
2022-12-24T16:39:21.362Z,8.60
2022-12-24T16:42:07.014Z,8.60
2022-12-24T16:44:34.946Z,8.60
2022-12-24T16:47:03.050Z,8.50
2022-12-24T16:49:31.053Z,8.40
2022-12-24T16:52:00.552Z,8.30
2022-12-24T16:54:30.019Z,8.20
2022-12-24T16:56:58.005Z,8.10
2022-12-24T16:59:26.423Z,8.10
2022-12-24T17:01:57.061Z,8.00
2022-12-24T17:04:25.035Z,8.00
2022-12-24T17:06:52.892Z,7.80
2022-12-24T17:09:22.094Z,7.80
2022-12-24T17:11:49.953Z,7.80
2022-12-24T17:14:20.663Z,7.80
2022-12-24T17:16:49.353Z,7.70
2022-12-24T17:19:17.883Z,7.60
2022-12-24T17:21:46.478Z,7.60
2022-12-24T17:24:14.539Z,7.50
2022-12-24T17:26:43.817Z,7.60
2022-12-24T17:29:12.160Z,7.70
2022-12-24T17:31:40.772Z,7.60
2022-12-24T17:34:09.285Z,7.70
2022-12-24T17:36:37.205Z,7.60
2022-12-24T17:39:05.492Z,7.60
2022-12-24T17:41:33.692Z,7.70
2022-12-24T17:44:04.744Z,7.80
2022-12-24T17:46:32.727Z,8.00
2022-12-24T17:49:00.680Z,8.00
2022-12-24T17:51:28.778Z,7.90
2022-12-24T17:53:56.675Z,7.80
2022-12-24T17:56:24.578Z,7.80
2022-12-24T17:58:55.457Z,7.80
2022-12-24T18:01:30.422Z,7.90
2022-12-24T18:04:01.661Z,8.00
2022-12-24T18:06:30.130Z,8.10
2022-12-24T18:08:58.950Z,8.20
2022-12-24T18:11:30.470Z,8.30
2022-12-24T18:14:00.959Z,8.20
2022-12-24T18:16:33.757Z,8.20
2022-12-24T18:19:02.472Z,8.20
2022-12-24T18:21:33.334Z,8.20
2022-12-24T18:24:02.113Z,8.20
2022-12-24T18:26:33.195Z,8.20
2022-12-24T18:29:04.427Z,8.20
2022-12-24T18:31:35.330Z,8.10
2022-12-24T18:34:06.841Z,8.20
2022-12-24T18:36:35.291Z,8.20
2022-12-24T18:39:03.228Z,8.30
2022-12-24T18:41:32.386Z,8.40
2022-12-24T18:44:00.996Z,8.40
2022-12-24T18:46:34.413Z,8.40
2022-12-24T18:49:02.825Z,8.40
2022-12-24T18:51:36.178Z,8.30
2022-12-24T18:54:04.618Z,8.30
2022-12-24T18:56:33.282Z,8.20
2022-12-24T18:59:04.045Z,8.20
2022-12-24T19:01:35.997Z,8.20
2022-12-24T19:04:04.634Z,8.10
2022-12-24T19:06:32.591Z,8.10
2022-12-24T19:09:01.771Z,8.10
2022-12-24T19:11:32.694Z,8.10
2022-12-24T19:14:02.241Z,8.00
2022-12-24T19:16:34.656Z,8.00
2022-12-24T19:19:04.714Z,7.90
2022-12-24T19:21:33.208Z,7.80
2022-12-24T19:24:01.764Z,7.80
2022-12-24T19:26:29.670Z,7.70
2022-12-24T19:28:57.609Z,7.60
2022-12-24T19:31:26.820Z,7.60
2022-12-24T19:33:57.992Z,7.50
2022-12-24T19:36:29.415Z,7.50
2022-12-24T19:38:58.223Z,7.40
2022-12-24T19:41:30.126Z,7.40
2022-12-24T19:44:00.610Z,7.30
2022-12-24T19:46:34.151Z,7.20
2022-12-24T19:49:05.906Z,7.10
2022-12-24T19:51:35.406Z,7.00
2022-12-24T19:54:05.914Z,6.90
2022-12-24T19:56:34.339Z,6.90
2022-12-24T19:59:04.771Z,6.80
2022-12-24T20:01:35.810Z,6.70
2022-12-24T20:04:08.011Z,6.70
2022-12-24T20:06:36.930Z,6.60
2022-12-24T20:09:08.011Z,6.60
2022-12-24T20:11:37.257Z,6.50
2022-12-24T20:14:07.125Z,6.40
2022-12-24T20:16:36.501Z,6.30
2022-12-24T20:19:07.693Z,6.30
2022-12-24T20:21:37.856Z,6.30
2022-12-24T20:24:08.995Z,6.20
2022-12-24T20:26:37.533Z,6.20
2022-12-24T20:29:07.359Z,6.20
2022-12-24T20:31:36.790Z,6.30
2022-12-24T20:34:08.642Z,6.30
2022-12-24T20:36:38.137Z,6.30
2022-12-24T20:39:07.866Z,6.30
2022-12-24T20:41:37.075Z,6.30
2022-12-24T20:44:05.524Z,6.20
2022-12-24T20:46:33.935Z,6.20
2022-12-24T20:49:02.051Z,6.10
2022-12-24T20:51:32.503Z,6.00
2022-12-24T20:54:02.068Z,5.90
2022-12-24T20:56:31.703Z,5.80
2022-12-24T20:59:01.360Z,5.80
2022-12-24T21:01:30.752Z,5.70
2022-12-24T21:04:04.597Z,5.70
2022-12-24T21:06:36.023Z,5.70
2022-12-24T21:09:06.720Z,5.80
2022-12-24T21:11:52.605Z,5.80
2022-12-24T21:14:24.865Z,6.00
2022-12-24T21:16:54.935Z,6.00
2022-12-24T21:19:26.427Z,6.10
2022-12-24T21:21:55.990Z,6.10
2022-12-24T21:24:24.211Z,6.10
2022-12-24T21:26:52.072Z,6.10
2022-12-24T21:29:19.943Z,6.10
2022-12-24T21:31:48.257Z,6.10
2022-12-24T21:34:16.370Z,6.10
2022-12-24T21:36:45.755Z,6.00
2022-12-24T21:39:15.445Z,6.00
2022-12-24T21:41:43.316Z,6.00
2022-12-24T21:44:11.180Z,5.90
2022-12-24T21:46:39.058Z,5.90
2022-12-24T21:49:24.390Z,5.90
2022-12-24T21:51:52.562Z,6.00
2022-12-24T21:54:23.748Z,6.00
2022-12-24T21:57:21.904Z,6.00
2022-12-24T21:59:50.534Z,6.10
2022-12-24T22:02:20.100Z,6.10
2022-12-24T22:04:48.061Z,6.10
2022-12-24T22:07:42.008Z,6.10
2022-12-24T22:10:30.300Z,6.20
2022-12-24T22:13:06.045Z,6.20
2022-12-24T22:15:34.329Z,6.30
2022-12-24T22:18:02.207Z,6.30
2022-12-24T22:20:30.102Z,6.30
2022-12-24T22:23:00.920Z,6.30
2022-12-24T22:25:31.425Z,6.40
2022-12-24T22:27:59.634Z,6.40
2022-12-24T22:30:28.345Z,6.40
2022-12-24T22:32:56.362Z,6.40
2022-12-24T22:35:24.419Z,6.40
2022-12-24T22:37:56.048Z,6.40
2022-12-24T22:40:27.939Z,6.40
2022-12-24T22:42:57.396Z,6.40
2022-12-24T22:45:25.288Z,6.50
2022-12-24T22:47:53.205Z,6.60
2022-12-24T22:50:21.261Z,6.60
2022-12-24T22:52:49.148Z,6.70
2022-12-24T22:55:17.227Z,6.70
2022-12-24T22:57:45.111Z,6.60
2022-12-24T23:00:36.502Z,6.60
2022-12-24T23:03:05.564Z,6.60
2022-12-24T23:05:33.663Z,6.60
2022-12-24T23:08:01.931Z,6.60
2022-12-24T23:10:29.830Z,6.70
2022-12-24T23:13:15.739Z,6.60
2022-12-24T23:15:45.040Z,6.70
2022-12-24T23:18:13.688Z,6.70
2022-12-24T23:20:46.134Z,6.80
2022-12-24T23:23:15.167Z,6.70
2022-12-24T23:25:43.132Z,6.70
2022-12-24T23:28:11.108Z,6.70
2022-12-24T23:30:38.975Z,6.70
2022-12-24T23:33:08.248Z,6.70
2022-12-24T23:35:36.104Z,6.70
2022-12-24T23:38:03.965Z,6.70
2022-12-24T23:40:32.162Z,6.80
2022-12-24T23:43:00.046Z,6.70
2022-12-24T23:45:27.932Z,6.80
2022-12-24T23:47:55.865Z,6.80
2022-12-24T23:50:25.171Z,6.80
2022-12-24T23:52:53.083Z,6.70
2022-12-24T23:55:20.988Z,6.70
2022-12-24T23:57:48.847Z,6.70
